Estación Meteorológica Peña el Pijo (Robertgarden) [ 07/23/17 10:55:27 CEST ]

Fecha Hora Presion(HPa) Temp (°C) Humedad % Rocio (°C) Viento ( m/s) Direccion Lluvia 1Hora(mm) Lluvia 24H(mm) LLuvia Total(mm)
2017-Jul-10 01:01:52 1009.900 17.8 63 10.6         1437.96
2017-Jul-10 02:02:01 1009.600 17.2 64 10.3         1437.96
2017-Jul-10 03:01:29 1009.400 16.9 64 10.0         1437.96
2017-Jul-10 04:01:25 1009.200 16.6 65 10.0         1437.96
2017-Jul-10 05:01:28 1009.100 16.2 65 9.6         1437.96
2017-Jul-10 06:01:28 1009.100 14.6 67 8.5         1437.96
2017-Jul-10 07:01:46 1009.200 13.9 72 8.9         1437.96
2017-Jul-10 08:01:41 1009.100 15.8 75 11.4         1437.96
2017-Jul-10 09:01:51 1009.100 22.8 58 14.1         1437.96
2017-Jul-10 10:01:49 1008.900 27.8 46 15.1         1437.96
2017-Jul-10 11:01:40 1008.800 31.1 35 13.7         1437.96
2017-Jul-10 12:01:45 1009.000 32.6 29 12.2         1437.96
2017-Jul-10 13:01:39 1008.600 34.8 24 11.0         1437.96
2017-Jul-10 14:01:38 1008.400 34.8 21 9.1         1437.96
2017-Jul-10 15:01:46 1007.800 37.1 22 11.7         1437.96
2017-Jul-10 16:01:44 1007.300 34.8 23 10.4 0.4 W     1437.96
2017-Jul-10 17:01:43 1006.700 36.1 24 12.1         1437.96
2017-Jul-10 18:01:28 1006.500 34.7 25 11.5         1437.96
2017-Jul-10 19:01:49 1006.800 30.0 30 10.6 2.4 SSW     1437.96
2017-Jul-10 20:01:39 1007.000 30.1 30 10.7         1437.96
2017-Jul-10 21:01:42 1007.700 26.8 36 10.4         1437.96
2017-Jul-10 22:01:46 1008.300 24.4 40 10.0         1437.96
2017-Jul-10 23:09:11 1009.400 - - - - ENE     1437.96

Temperatura Máxima:37°    Temperatura Mínima:
Presión Máxima:1009.900 Hpa    Presión Mínima:1006.500 Hpa


Volver